sensor_id;sensor_type;location;lat;lon;timestamp;temperature;humidity
7296;DHT22;40758;54.038;11.684;2022-09-24T00:01:08;10.20;99.90
7296;DHT22;40758;54.038;11.684;2022-09-24T00:03:43;10.30;99.90
7296;DHT22;40758;54.038;11.684;2022-09-24T00:06:16;10.30;99.90
7296;DHT22;40758;54.038;11.684;2022-09-24T00:08:45;10.30;99.90
7296;DHT22;40758;54.038;11.684;2022-09-24T00:11:15;10.30;99.90
7296;DHT22;40758;54.038;11.684;2022-09-24T00:13:48;10.30;99.90
7296;DHT22;40758;54.038;11.684;2022-09-24T00:16:19;10.20;99.90
7296;DHT22;40758;54.038;11.684;2022-09-24T00:18:50;10.20;99.90
7296;DHT22;40758;54.038;11.684;2022-09-24T00:21:20;10.20;99.90
7296;DHT22;40758;54.038;11.684;2022-09-24T00:23:51;10.20;99.90
7296;DHT22;40758;54.038;11.684;2022-09-24T00:26:22;10.20;99.90
7296;DHT22;40758;54.038;11.684;2022-09-24T00:29:12;10.20;99.90
7296;DHT22;40758;54.038;11.684;2022-09-24T00:31:42;10.10;99.90
7296;DHT22;40758;54.038;11.684;2022-09-24T00:34:12;10.10;99.90
7296;DHT22;40758;54.038;11.684;2022-09-24T00:36:41;10.00;99.90
7296;DHT22;40758;54.038;11.684;2022-09-24T00:39:10;9.90;99.90
7296;DHT22;40758;54.038;11.684;2022-09-24T00:41:40;10.00;99.90
7296;DHT22;40758;54.038;11.684;2022-09-24T00:47:22;10.00;99.90
7296;DHT22;40758;54.038;11.684;2022-09-24T00:49:57;10.00;99.90
7296;DHT22;40758;54.038;11.684;2022-09-24T00:52:34;9.90;99.90
7296;DHT22;40758;54.038;11.684;2022-09-24T00:55:06;9.90;99.90
7296;DHT22;40758;54.038;11.684;2022-09-24T00:57:37;10.00;99.90
7296;DHT22;40758;54.038;11.684;2022-09-24T01:00:07;10.10;99.90
7296;DHT22;40758;54.038;11.684;2022-09-24T01:02:37;10.10;99.90
7296;DHT22;40758;54.038;11.684;2022-09-24T01:05:09;10.10;99.90
7296;DHT22;40758;54.038;11.684;2022-09-24T01:07:39;10.10;99.90
7296;DHT22;40758;54.038;11.684;2022-09-24T01:10:08;10.10;99.90
7296;DHT22;40758;54.038;11.684;2022-09-24T01:12:40;10.20;99.90
7296;DHT22;40758;54.038;11.684;2022-09-24T01:15:16;10.10;99.90
7296;DHT22;40758;54.038;11.684;2022-09-24T01:17:52;10.10;99.90
7296;DHT22;40758;54.038;11.684;2022-09-24T01:20:37;10.10;99.90
7296;DHT22;40758;54.038;11.684;2022-09-24T01:23:36;10.10;99.90
7296;DHT22;40758;54.038;11.684;2022-09-24T01:26:27;10.10;99.90
7296;DHT22;40758;54.038;11.684;2022-09-24T01:29:22;10.10;99.90
7296;DHT22;40758;54.038;11.684;2022-09-24T01:31:58;10.10;99.90
7296;DHT22;40758;54.038;11.684;2022-09-24T01:34:33;10.10;99.90
7296;DHT22;40758;54.038;11.684;2022-09-24T01:37:06;10.10;99.90
7296;DHT22;40758;54.038;11.684;2022-09-24T01:39:35;10.10;99.90
7296;DHT22;40758;54.038;11.684;2022-09-24T01:42:05;10.10;99.90
7296;DHT22;40758;54.038;11.684;2022-09-24T01:44:38;10.00;99.90
7296;DHT22;40758;54.038;11.684;2022-09-24T01:47:12;10.00;99.90
7296;DHT22;40758;54.038;11.684;2022-09-24T01:49:45;10.10;99.90
7296;DHT22;40758;54.038;11.684;2022-09-24T01:52:16;10.00;99.90
7296;DHT22;40758;54.038;11.684;2022-09-24T01:54:49;10.10;99.90
7296;DHT22;40758;54.038;11.684;2022-09-24T01:57:22;10.10;99.90
7296;DHT22;40758;54.038;11.684;2022-09-24T01:59:55;10.10;99.90
7296;DHT22;40758;54.038;11.684;2022-09-24T02:02:27;10.10;99.90
7296;DHT22;40758;54.038;11.684;2022-09-24T02:05:02;10.10;99.90
7296;DHT22;40758;54.038;11.684;2022-09-24T02:07:39;10.10;99.90
7296;DHT22;40758;54.038;11.684;2022-09-24T02:10:17;10.10;99.90
7296;DHT22;40758;54.038;11.684;2022-09-24T02:12:48;10.10;99.90
7296;DHT22;40758;54.038;11.684;2022-09-24T02:15:23;10.00;99.90
7296;DHT22;40758;54.038;11.684;2022-09-24T02:17:58;10.00;99.90
7296;DHT22;40758;54.038;11.684;2022-09-24T02:20:33;10.00;99.90
7296;DHT22;40758;54.038;11.684;2022-09-24T02:23:04;10.00;99.90
7296;DHT22;40758;54.038;11.684;2022-09-24T02:25:36;10.00;99.90
7296;DHT22;40758;54.038;11.684;2022-09-24T02:28:08;9.90;99.90
7296;DHT22;40758;54.038;11.684;2022-09-24T02:30:40;9.80;99.90
7296;DHT22;40758;54.038;11.684;2022-09-24T02:33:13;9.80;99.90
7296;DHT22;40758;54.038;11.684;2022-09-24T02:36:00;9.70;99.90
7296;DHT22;40758;54.038;11.684;2022-09-24T02:38:29;9.60;99.90
7296;DHT22;40758;54.038;11.684;2022-09-24T02:40:57;9.50;99.90
7296;DHT22;40758;54.038;11.684;2022-09-24T02:43:26;9.50;99.90
7296;DHT22;40758;54.038;11.684;2022-09-24T02:45:57;9.50;99.90
7296;DHT22;40758;54.038;11.684;2022-09-24T02:48:25;9.40;99.90
7296;DHT22;40758;54.038;11.684;2022-09-24T02:50:54;9.40;99.90
7296;DHT22;40758;54.038;11.684;2022-09-24T02:53:23;9.30;99.90
7296;DHT22;40758;54.038;11.684;2022-09-24T02:55:52;9.40;99.90
7296;DHT22;40758;54.038;11.684;2022-09-24T02:58:24;9.40;99.90
7296;DHT22;40758;54.038;11.684;2022-09-24T03:00:52;9.40;99.90
7296;DHT22;40758;54.038;11.684;2022-09-24T03:03:24;9.40;99.90
7296;DHT22;40758;54.038;11.684;2022-09-24T03:05:53;9.40;99.90
7296;DHT22;40758;54.038;11.684;2022-09-24T03:08:22;9.40;99.90
7296;DHT22;40758;54.038;11.684;2022-09-24T03:10:51;9.40;99.90
7296;DHT22;40758;54.038;11.684;2022-09-24T03:13:22;9.40;99.90
7296;DHT22;40758;54.038;11.684;2022-09-24T03:15:51;9.40;99.90
7296;DHT22;40758;54.038;11.684;2022-09-24T03:18:21;9.30;99.90
7296;DHT22;40758;54.038;11.684;2022-09-24T03:20:54;9.20;99.90
7296;DHT22;40758;54.038;11.684;2022-09-24T03:23:24;9.20;99.90
7296;DHT22;40758;54.038;11.684;2022-09-24T03:25:53;9.20;99.90
7296;DHT22;40758;54.038;11.684;2022-09-24T03:28:24;9.20;99.90
7296;DHT22;40758;54.038;11.684;2022-09-24T03:30:55;9.30;99.90
7296;DHT22;40758;54.038;11.684;2022-09-24T03:33:32;9.40;99.90
7296;DHT22;40758;54.038;11.684;2022-09-24T03:36:06;9.40;99.90
7296;DHT22;40758;54.038;11.684;2022-09-24T03:38:36;9.50;99.90
7296;DHT22;40758;54.038;11.684;2022-09-24T03:41:06;9.50;99.90
7296;DHT22;40758;54.038;11.684;2022-09-24T03:43:36;9.50;99.90
7296;DHT22;40758;54.038;11.684;2022-09-24T03:46:06;9.40;99.90
7296;DHT22;40758;54.038;11.684;2022-09-24T03:48:37;9.40;99.90
7296;DHT22;40758;54.038;11.684;2022-09-24T03:51:08;9.30;99.90
7296;DHT22;40758;54.038;11.684;2022-09-24T03:53:39;9.40;99.90
7296;DHT22;40758;54.038;11.684;2022-09-24T03:56:08;9.50;99.90
7296;DHT22;40758;54.038;11.684;2022-09-24T03:58:38;9.50;99.90
7296;DHT22;40758;54.038;11.684;2022-09-24T04:01:08;9.50;99.90
7296;DHT22;40758;54.038;11.684;2022-09-24T04:03:40;9.50;99.90
7296;DHT22;40758;54.038;11.684;2022-09-24T04:06:10;9.40;99.90
7296;DHT22;40758;54.038;11.684;2022-09-24T04:08:39;9.50;99.90
7296;DHT22;40758;54.038;11.684;2022-09-24T04:11:07;9.60;99.90
7296;DHT22;40758;54.038;11.684;2022-09-24T04:13:37;9.60;99.90
7296;DHT22;40758;54.038;11.684;2022-09-24T04:16:06;9.70;99.90
7296;DHT22;40758;54.038;11.684;2022-09-24T04:18:34;9.70;99.90
7296;DHT22;40758;54.038;11.684;2022-09-24T04:21:05;9.70;99.90
7296;DHT22;40758;54.038;11.684;2022-09-24T04:23:35;9.70;99.90
7296;DHT22;40758;54.038;11.684;2022-09-24T04:26:08;9.80;99.90
7296;DHT22;40758;54.038;11.684;2022-09-24T04:28:37;9.70;99.90
7296;DHT22;40758;54.038;11.684;2022-09-24T04:31:05;9.80;99.90
7296;DHT22;40758;54.038;11.684;2022-09-24T04:33:33;9.80;99.90
7296;DHT22;40758;54.038;11.684;2022-09-24T04:36:04;9.80;99.90
7296;DHT22;40758;54.038;11.684;2022-09-24T04:38:32;9.90;99.90
7296;DHT22;40758;54.038;11.684;2022-09-24T04:41:06;9.90;99.90
7296;DHT22;40758;54.038;11.684;2022-09-24T04:43:36;10.00;99.90
7296;DHT22;40758;54.038;11.684;2022-09-24T04:46:07;10.00;99.90
7296;DHT22;40758;54.038;11.684;2022-09-24T04:48:36;10.10;99.90
7296;DHT22;40758;54.038;11.684;2022-09-24T04:51:06;10.10;99.90
7296;DHT22;40758;54.038;11.684;2022-09-24T04:53:36;10.10;99.90
7296;DHT22;40758;54.038;11.684;2022-09-24T04:56:06;10.10;99.90
7296;DHT22;40758;54.038;11.684;2022-09-24T04:58:38;10.20;99.90
7296;DHT22;40758;54.038;11.684;2022-09-24T05:01:06;10.20;99.90
7296;DHT22;40758;54.038;11.684;2022-09-24T05:03:35;10.20;99.90
7296;DHT22;40758;54.038;11.684;2022-09-24T05:06:03;10.20;99.90
7296;DHT22;40758;54.038;11.684;2022-09-24T05:08:32;10.20;99.90
7296;DHT22;40758;54.038;11.684;2022-09-24T05:11:00;10.20;99.90
7296;DHT22;40758;54.038;11.684;2022-09-24T05:13:30;10.20;99.90
7296;DHT22;40758;54.038;11.684;2022-09-24T05:15:58;10.20;99.90
7296;DHT22;40758;54.038;11.684;2022-09-24T05:18:28;10.10;99.90
7296;DHT22;40758;54.038;11.684;2022-09-24T05:20:56;10.10;99.90
7296;DHT22;40758;54.038;11.684;2022-09-24T05:23:24;10.10;99.90
7296;DHT22;40758;54.038;11.684;2022-09-24T05:25:53;10.10;99.90
7296;DHT22;40758;54.038;11.684;2022-09-24T05:28:40;10.10;99.90
7296;DHT22;40758;54.038;11.684;2022-09-24T05:31:09;10.20;99.90
7296;DHT22;40758;54.038;11.684;2022-09-24T05:33:37;10.20;99.90
7296;DHT22;40758;54.038;11.684;2022-09-24T05:36:06;10.30;99.90
7296;DHT22;40758;54.038;11.684;2022-09-24T05:38:34;10.40;99.90
7296;DHT22;40758;54.038;11.684;2022-09-24T05:41:07;10.60;99.90
7296;DHT22;40758;54.038;11.684;2022-09-24T05:43:35;10.70;99.90
7296;DHT22;40758;54.038;11.684;2022-09-24T05:46:05;10.80;99.90
7296;DHT22;40758;54.038;11.684;2022-09-24T05:48:35;10.90;99.90
7296;DHT22;40758;54.038;11.684;2022-09-24T05:51:03;10.90;99.90
7296;DHT22;40758;54.038;11.684;2022-09-24T05:53:32;11.00;99.90
7296;DHT22;40758;54.038;11.684;2022-09-24T05:56:01;11.10;99.90
7296;DHT22;40758;54.038;11.684;2022-09-24T05:58:29;11.10;99.90
7296;DHT22;40758;54.038;11.684;2022-09-24T06:00:58;11.20;99.90
7296;DHT22;40758;54.038;11.684;2022-09-24T06:03:29;11.30;99.90
7296;DHT22;40758;54.038;11.684;2022-09-24T06:05:58;11.40;99.90
7296;DHT22;40758;54.038;11.684;2022-09-24T06:08:29;11.50;99.90
7296;DHT22;40758;54.038;11.684;2022-09-24T06:10:59;11.60;99.90
7296;DHT22;40758;54.038;11.684;2022-09-24T06:13:29;11.70;99.90
7296;DHT22;40758;54.038;11.684;2022-09-24T06:16:01;11.80;99.90
7296;DHT22;40758;54.038;11.684;2022-09-24T06:18:33;11.90;99.90
7296;DHT22;40758;54.038;11.684;2022-09-24T06:21:02;12.00;99.90
7296;DHT22;40758;54.038;11.684;2022-09-24T06:23:33;12.20;99.90
7296;DHT22;40758;54.038;11.684;2022-09-24T06:26:03;12.40;99.90
7296;DHT22;40758;54.038;11.684;2022-09-24T06:28:34;12.50;99.90
7296;DHT22;40758;54.038;11.684;2022-09-24T06:31:05;12.80;99.90
7296;DHT22;40758;54.038;11.684;2022-09-24T06:33:36;13.00;99.90
7296;DHT22;40758;54.038;11.684;2022-09-24T06:36:06;13.20;99.90
7296;DHT22;40758;54.038;11.684;2022-09-24T06:38:35;13.40;99.90
7296;DHT22;40758;54.038;11.684;2022-09-24T06:41:05;13.70;99.90
7296;DHT22;40758;54.038;11.684;2022-09-24T06:43:35;13.90;99.90
7296;DHT22;40758;54.038;11.684;2022-09-24T06:46:03;14.00;99.90
7296;DHT22;40758;54.038;11.684;2022-09-24T06:48:32;14.10;99.90
7296;DHT22;40758;54.038;11.684;2022-09-24T06:51:04;14.20;99.90
7296;DHT22;40758;54.038;11.684;2022-09-24T06:53:33;14.30;99.90
7296;DHT22;40758;54.038;11.684;2022-09-24T06:56:02;14.40;99.90
7296;DHT22;40758;54.038;11.684;2022-09-24T06:58:31;14.40;99.90
7296;DHT22;40758;54.038;11.684;2022-09-24T07:01:00;14.50;99.90
7296;DHT22;40758;54.038;11.684;2022-09-24T07:03:33;14.50;99.90
7296;DHT22;40758;54.038;11.684;2022-09-24T07:06:04;14.60;99.90
7296;DHT22;40758;54.038;11.684;2022-09-24T07:08:33;14.60;99.90
7296;DHT22;40758;54.038;11.684;2022-09-24T07:11:02;14.60;99.90
7296;DHT22;40758;54.038;11.684;2022-09-24T07:13:31;14.60;99.90
7296;DHT22;40758;54.038;11.684;2022-09-24T07:15:59;14.70;1.00
7296;DHT22;40758;54.038;11.684;2022-09-24T07:18:28;14.70;99.90
7296;DHT22;40758;54.038;11.684;2022-09-24T07:20:59;14.90;99.90
7296;DHT22;40758;54.038;11.684;2022-09-24T07:23:29;14.90;99.90
7296;DHT22;40758;54.038;11.684;2022-09-24T07:25:57;14.90;99.90
7296;DHT22;40758;54.038;11.684;2022-09-24T07:28:26;15.10;99.90
7296;DHT22;40758;54.038;11.684;2022-09-24T07:30:55;15.20;99.90
7296;DHT22;40758;54.038;11.684;2022-09-24T07:33:24;15.30;99.90
7296;DHT22;40758;54.038;11.684;2022-09-24T07:35:53;15.30;99.90
7296;DHT22;40758;54.038;11.684;2022-09-24T07:38:21;15.30;99.90
7296;DHT22;40758;54.038;11.684;2022-09-24T07:40:55;15.30;99.90
7296;DHT22;40758;54.038;11.684;2022-09-24T07:43:27;15.30;99.90
7296;DHT22;40758;54.038;11.684;2022-09-24T07:45:56;15.30;99.90
7296;DHT22;40758;54.038;11.684;2022-09-24T07:48:24;15.30;99.90
7296;DHT22;40758;54.038;11.684;2022-09-24T07:50:53;15.20;99.90
7296;DHT22;40758;54.038;11.684;2022-09-24T07:53:22;15.30;99.90
7296;DHT22;40758;54.038;11.684;2022-09-24T07:55:52;15.30;99.90
7296;DHT22;40758;54.038;11.684;2022-09-24T07:58:26;15.30;99.90
7296;DHT22;40758;54.038;11.684;2022-09-24T08:00:56;15.40;99.90
7296;DHT22;40758;54.038;11.684;2022-09-24T08:03:25;15.50;99.90
7296;DHT22;40758;54.038;11.684;2022-09-24T08:05:54;15.50;99.90
7296;DHT22;40758;54.038;11.684;2022-09-24T08:08:26;15.60;99.90
7296;DHT22;40758;54.038;11.684;2022-09-24T08:10:56;15.70;99.90
7296;DHT22;40758;54.038;11.684;2022-09-24T08:13:24;15.80;99.90
7296;DHT22;40758;54.038;11.684;2022-09-24T08:15:56;15.90;99.90
7296;DHT22;40758;54.038;11.684;2022-09-24T08:18:26;16.10;99.90
7296;DHT22;40758;54.038;11.684;2022-09-24T08:20:56;16.20;99.90
7296;DHT22;40758;54.038;11.684;2022-09-24T08:23:28;16.40;99.90
7296;DHT22;40758;54.038;11.684;2022-09-24T08:25:59;16.70;99.90
7296;DHT22;40758;54.038;11.684;2022-09-24T08:28:28;16.70;99.90
7296;DHT22;40758;54.038;11.684;2022-09-24T08:30:57;16.70;99.90
7296;DHT22;40758;54.038;11.684;2022-09-24T08:33:27;16.60;99.90
7296;DHT22;40758;54.038;11.684;2022-09-24T08:35:58;16.80;99.90
7296;DHT22;40758;54.038;11.684;2022-09-24T08:38:27;17.10;99.90
7296;DHT22;40758;54.038;11.684;2022-09-24T08:40:58;17.30;99.90
7296;DHT22;40758;54.038;11.684;2022-09-24T08:43:39;17.60;99.90
7296;DHT22;40758;54.038;11.684;2022-09-24T08:46:18;17.90;99.90
7296;DHT22;40758;54.038;11.684;2022-09-24T08:49:09;18.30;99.90
7296;DHT22;40758;54.038;11.684;2022-09-24T08:51:45;18.70;99.90
7296;DHT22;40758;54.038;11.684;2022-09-24T08:54:24;18.70;99.90
7296;DHT22;40758;54.038;11.684;2022-09-24T08:56:57;18.80;99.90
7296;DHT22;40758;54.038;11.684;2022-09-24T08:59:30;19.20;99.90
7296;DHT22;40758;54.038;11.684;2022-09-24T09:02:10;19.30;99.90
7296;DHT22;40758;54.038;11.684;2022-09-24T09:05:14;19.30;99.90
7296;DHT22;40758;54.038;11.684;2022-09-24T09:07:56;19.30;99.90
7296;DHT22;40758;54.038;11.684;2022-09-24T09:10:38;18.90;99.90
7296;DHT22;40758;54.038;11.684;2022-09-24T09:13:11;18.60;99.90
7296;DHT22;40758;54.038;11.684;2022-09-24T09:15:44;18.10;99.90
7296;DHT22;40758;54.038;11.684;2022-09-24T09:18:20;17.70;99.90
7296;DHT22;40758;54.038;11.684;2022-09-24T09:20:53;17.50;99.90
7296;DHT22;40758;54.038;11.684;2022-09-24T09:23:31;17.50;99.90
7296;DHT22;40758;54.038;11.684;2022-09-24T09:26:07;17.70;99.90
7296;DHT22;40758;54.038;11.684;2022-09-24T09:28:40;18.00;99.90
7296;DHT22;40758;54.038;11.684;2022-09-24T09:31:11;18.10;99.90
7296;DHT22;40758;54.038;11.684;2022-09-24T09:33:58;18.30;99.90
7296;DHT22;40758;54.038;11.684;2022-09-24T09:36:45;18.30;99.90
7296;DHT22;40758;54.038;11.684;2022-09-24T09:39:30;18.40;99.90
7296;DHT22;40758;54.038;11.684;2022-09-24T09:42:07;18.70;99.90
7296;DHT22;40758;54.038;11.684;2022-09-24T09:44:54;19.30;99.90
7296;DHT22;40758;54.038;11.684;2022-09-24T09:47:24;19.80;99.90
7296;DHT22;40758;54.038;11.684;2022-09-24T09:50:02;20.10;99.90
7296;DHT22;40758;54.038;11.684;2022-09-24T09:52:33;20.10;99.90
7296;DHT22;40758;54.038;11.684;2022-09-24T09:55:05;20.10;99.90
7296;DHT22;40758;54.038;11.684;2022-09-24T09:57:35;20.00;99.90
7296;DHT22;40758;54.038;11.684;2022-09-24T10:00:06;20.00;99.90
7296;DHT22;40758;54.038;11.684;2022-09-24T10:02:52;20.00;99.90
7296;DHT22;40758;54.038;11.684;2022-09-24T10:05:22;20.40;99.90
7296;DHT22;40758;54.038;11.684;2022-09-24T10:07:54;20.40;99.90
7296;DHT22;40758;54.038;11.684;2022-09-24T10:10:24;20.30;99.90
7296;DHT22;40758;54.038;11.684;2022-09-24T10:13:04;20.30;99.90
7296;DHT22;40758;54.038;11.684;2022-09-24T10:15:40;20.40;99.90
7296;DHT22;40758;54.038;11.684;2022-09-24T10:18:16;20.60;99.90
7296;DHT22;40758;54.038;11.684;2022-09-24T10:20:55;20.80;99.90
7296;DHT22;40758;54.038;11.684;2022-09-24T10:23:31;21.30;99.90
7296;DHT22;40758;54.038;11.684;2022-09-24T10:26:03;21.40;99.90
7296;DHT22;40758;54.038;11.684;2022-09-24T10:28:33;22.00;99.90
7296;DHT22;40758;54.038;11.684;2022-09-24T10:31:25;22.40;99.90
7296;DHT22;40758;54.038;11.684;2022-09-24T10:33:58;22.50;99.90
7296;DHT22;40758;54.038;11.684;2022-09-24T10:36:29;22.60;99.90
7296;DHT22;40758;54.038;11.684;2022-09-24T10:39:03;22.30;99.90
7296;DHT22;40758;54.038;11.684;2022-09-24T10:41:44;22.40;99.90
7296;DHT22;40758;54.038;11.684;2022-09-24T10:44:13;22.80;99.90
7296;DHT22;40758;54.038;11.684;2022-09-24T10:46:48;23.20;99.90
7296;DHT22;40758;54.038;11.684;2022-09-24T10:49:29;23.70;99.90
7296;DHT22;40758;54.038;11.684;2022-09-24T10:52:11;24.20;99.90
7296;DHT22;40758;54.038;11.684;2022-09-24T10:54:54;25.00;99.90
7296;DHT22;40758;54.038;11.684;2022-09-24T10:57:40;24.70;99.90
7296;DHT22;40758;54.038;11.684;2022-09-24T11:00:21;23.50;99.90
7296;DHT22;40758;54.038;11.684;2022-09-24T11:06:01;22.50;99.90
7296;DHT22;40758;54.038;11.684;2022-09-24T11:08:44;22.20;99.90
7296;DHT22;40758;54.038;11.684;2022-09-24T11:11:25;22.20;99.90
7296;DHT22;40758;54.038;11.684;2022-09-24T11:14:08;21.50;99.90
7296;DHT22;40758;54.038;11.684;2022-09-24T11:16:58;20.70;99.90
7296;DHT22;40758;54.038;11.684;2022-09-24T11:19:47;21.20;99.90
7296;DHT22;40758;54.038;11.684;2022-09-24T11:22:42;21.80;99.90
7296;DHT22;40758;54.038;11.684;2022-09-24T11:25:25;22.10;99.90
7296;DHT22;40758;54.038;11.684;2022-09-24T11:28:09;21.50;99.90
7296;DHT22;40758;54.038;11.684;2022-09-24T11:30:51;21.10;99.90
7296;DHT22;40758;54.038;11.684;2022-09-24T11:33:36;20.70;99.90
7296;DHT22;40758;54.038;11.684;2022-09-24T11:36:23;20.50;99.90
7296;DHT22;40758;54.038;11.684;2022-09-24T11:39:07;20.20;99.90
7296;DHT22;40758;54.038;11.684;2022-09-24T11:41:48;19.90;99.90
7296;DHT22;40758;54.038;11.684;2022-09-24T11:44:28;19.80;99.90
7296;DHT22;40758;54.038;11.684;2022-09-24T11:47:35;20.20;99.90
7296;DHT22;40758;54.038;11.684;2022-09-24T11:50:16;20.30;99.90
7296;DHT22;40758;54.038;11.684;2022-09-24T11:52:53;20.20;99.90
7296;DHT22;40758;54.038;11.684;2022-09-24T11:55:29;20.10;99.90
7296;DHT22;40758;54.038;11.684;2022-09-24T11:58:06;20.00;99.90
7296;DHT22;40758;54.038;11.684;2022-09-24T12:00:43;19.70;99.90
7296;DHT22;40758;54.038;11.684;2022-09-24T12:03:40;19.70;99.90
7296;DHT22;40758;54.038;11.684;2022-09-24T12:06:39;19.70;99.90
7296;DHT22;40758;54.038;11.684;2022-09-24T12:09:13;19.50;99.90
7296;DHT22;40758;54.038;11.684;2022-09-24T12:12:00;19.40;99.90
7296;DHT22;40758;54.038;11.684;2022-09-24T12:14:44;19.30;99.90
7296;DHT22;40758;54.038;11.684;2022-09-24T12:17:20;19.10;99.90
7296;DHT22;40758;54.038;11.684;2022-09-24T12:19:54;18.80;99.90
7296;DHT22;40758;54.038;11.684;2022-09-24T12:22:29;18.70;99.90
7296;DHT22;40758;54.038;11.684;2022-09-24T12:25:04;18.60;99.90
7296;DHT22;40758;54.038;11.684;2022-09-24T12:27:41;18.60;99.90
7296;DHT22;40758;54.038;11.684;2022-09-24T12:30:16;18.50;99.90
7296;DHT22;40758;54.038;11.684;2022-09-24T12:33:11;18.30;99.90
7296;DHT22;40758;54.038;11.684;2022-09-24T12:35:57;18.20;99.90
7296;DHT22;40758;54.038;11.684;2022-09-24T12:38:32;18.10;99.90
7296;DHT22;40758;54.038;11.684;2022-09-24T12:43:58;18.00;99.90
7296;DHT22;40758;54.038;11.684;2022-09-24T12:46:37;18.20;99.90
7296;DHT22;40758;54.038;11.684;2022-09-24T12:49:16;18.40;99.90
7296;DHT22;40758;54.038;11.684;2022-09-24T12:51:50;18.40;99.90
7296;DHT22;40758;54.038;11.684;2022-09-24T12:54:21;18.50;99.90
7296;DHT22;40758;54.038;11.684;2022-09-24T12:57:02;18.50;99.90
7296;DHT22;40758;54.038;11.684;2022-09-24T12:59:44;18.50;99.90
7296;DHT22;40758;54.038;11.684;2022-09-24T13:02:16;18.40;99.90
7296;DHT22;40758;54.038;11.684;2022-09-24T13:05:02;18.20;99.90
7296;DHT22;40758;54.038;11.684;2022-09-24T13:07:41;18.20;99.90
7296;DHT22;40758;54.038;11.684;2022-09-24T13:10:22;18.30;99.90
7296;DHT22;40758;54.038;11.684;2022-09-24T13:12:55;18.50;99.90
7296;DHT22;40758;54.038;11.684;2022-09-24T13:15:33;18.50;99.90
7296;DHT22;40758;54.038;11.684;2022-09-24T13:18:12;18.60;99.90
7296;DHT22;40758;54.038;11.684;2022-09-24T13:20:56;18.80;99.90
7296;DHT22;40758;54.038;11.684;2022-09-24T13:23:43;18.80;99.90
7296;DHT22;40758;54.038;11.684;2022-09-24T13:26:25;18.80;99.90
7296;DHT22;40758;54.038;11.684;2022-09-24T13:28:59;18.80;99.90
7296;DHT22;40758;54.038;11.684;2022-09-24T13:31:43;19.20;99.90
7296;DHT22;40758;54.038;11.684;2022-09-24T13:34:28;19.40;99.90
7296;DHT22;40758;54.038;11.684;2022-09-24T13:36:58;19.50;99.90
7296;DHT22;40758;54.038;11.684;2022-09-24T13:39:32;19.40;99.90
7296;DHT22;40758;54.038;11.684;2022-09-24T13:42:23;19.10;99.90
7296;DHT22;40758;54.038;11.684;2022-09-24T13:45:02;19.00;99.90
7296;DHT22;40758;54.038;11.684;2022-09-24T13:47:42;19.00;99.90
7296;DHT22;40758;54.038;11.684;2022-09-24T13:50:19;19.00;99.90
7296;DHT22;40758;54.038;11.684;2022-09-24T13:52:54;19.10;99.90
7296;DHT22;40758;54.038;11.684;2022-09-24T13:55:42;19.10;99.90
7296;DHT22;40758;54.038;11.684;2022-09-24T13:58:24;18.90;99.90
7296;DHT22;40758;54.038;11.684;2022-09-24T14:00:54;18.80;99.90
7296;DHT22;40758;54.038;11.684;2022-09-24T14:03:29;18.60;99.90
7296;DHT22;40758;54.038;11.684;2022-09-24T14:06:08;18.50;99.90
7296;DHT22;40758;54.038;11.684;2022-09-24T14:08:39;18.40;99.90
7296;DHT22;40758;54.038;11.684;2022-09-24T14:11:13;18.10;99.90
7296;DHT22;40758;54.038;11.684;2022-09-24T14:13:45;17.70;99.90
7296;DHT22;40758;54.038;11.684;2022-09-24T14:16:21;17.60;99.90
7296;DHT22;40758;54.038;11.684;2022-09-24T14:19:00;17.40;99.90
7296;DHT22;40758;54.038;11.684;2022-09-24T14:21:31;17.10;99.90
7296;DHT22;40758;54.038;11.684;2022-09-24T14:24:04;17.00;99.90
7296;DHT22;40758;54.038;11.684;2022-09-24T14:26:40;16.80;99.90
7296;DHT22;40758;54.038;11.684;2022-09-24T14:29:13;16.70;99.90
7296;DHT22;40758;54.038;11.684;2022-09-24T14:31:46;16.60;99.90
7296;DHT22;40758;54.038;11.684;2022-09-24T14:34:26;16.50;99.90
7296;DHT22;40758;54.038;11.684;2022-09-24T14:37:06;16.40;99.90
7296;DHT22;40758;54.038;11.684;2022-09-24T14:39:40;16.40;99.90
7296;DHT22;40758;54.038;11.684;2022-09-24T14:42:12;16.30;99.90
7296;DHT22;40758;54.038;11.684;2022-09-24T14:44:49;16.30;99.90
7296;DHT22;40758;54.038;11.684;2022-09-24T14:47:23;16.20;99.90
7296;DHT22;40758;54.038;11.684;2022-09-24T14:49:54;16.20;99.90
7296;DHT22;40758;54.038;11.684;2022-09-24T14:52:28;16.20;99.90
7296;DHT22;40758;54.038;11.684;2022-09-24T14:55:07;16.20;99.90
7296;DHT22;40758;54.038;11.684;2022-09-24T14:57:41;16.10;99.90
7296;DHT22;40758;54.038;11.684;2022-09-24T15:00:19;16.00;99.90
7296;DHT22;40758;54.038;11.684;2022-09-24T15:02:56;16.00;99.90
7296;DHT22;40758;54.038;11.684;2022-09-24T15:05:31;16.00;99.90
7296;DHT22;40758;54.038;11.684;2022-09-24T15:08:08;16.00;99.90
7296;DHT22;40758;54.038;11.684;2022-09-24T15:10:53;16.00;99.90
7296;DHT22;40758;54.038;11.684;2022-09-24T15:13:27;15.90;99.90
7296;DHT22;40758;54.038;11.684;2022-09-24T15:16:01;15.70;99.90
7296;DHT22;40758;54.038;11.684;2022-09-24T15:18:32;15.70;99.90
7296;DHT22;40758;54.038;11.684;2022-09-24T15:21:03;15.60;99.90
7296;DHT22;40758;54.038;11.684;2022-09-24T15:23:34;15.70;99.90
7296;DHT22;40758;54.038;11.684;2022-09-24T15:26:05;15.60;99.90
7296;DHT22;40758;54.038;11.684;2022-09-24T15:28:36;15.50;99.90
7296;DHT22;40758;54.038;11.684;2022-09-24T15:31:04;15.50;99.90
7296;DHT22;40758;54.038;11.684;2022-09-24T15:33:33;15.50;99.90
7296;DHT22;40758;54.038;11.684;2022-09-24T15:36:04;15.40;99.90
7296;DHT22;40758;54.038;11.684;2022-09-24T15:38:32;15.30;99.90
7296;DHT22;40758;54.038;11.684;2022-09-24T15:41:01;15.30;99.90
7296;DHT22;40758;54.038;11.684;2022-09-24T15:43:30;15.40;99.90
7296;DHT22;40758;54.038;11.684;2022-09-24T15:45:59;15.50;99.90
7296;DHT22;40758;54.038;11.684;2022-09-24T15:48:33;15.40;99.90
7296;DHT22;40758;54.038;11.684;2022-09-24T15:51:08;15.40;99.90
7296;DHT22;40758;54.038;11.684;2022-09-24T15:53:41;15.30;99.90
7296;DHT22;40758;54.038;11.684;2022-09-24T15:56:10;15.20;99.90
7296;DHT22;40758;54.038;11.684;2022-09-24T15:58:39;15.20;99.90
7296;DHT22;40758;54.038;11.684;2022-09-24T16:01:12;15.10;99.90
7296;DHT22;40758;54.038;11.684;2022-09-24T16:03:48;15.00;99.90
7296;DHT22;40758;54.038;11.684;2022-09-24T16:06:17;15.00;99.90
7296;DHT22;40758;54.038;11.684;2022-09-24T16:08:53;14.90;99.90
7296;DHT22;40758;54.038;11.684;2022-09-24T16:11:28;14.80;99.90
7296;DHT22;40758;54.038;11.684;2022-09-24T16:14:00;14.80;99.90
7296;DHT22;40758;54.038;11.684;2022-09-24T16:16:28;14.70;99.90
7296;DHT22;40758;54.038;11.684;2022-09-24T16:18:57;14.70;99.90
7296;DHT22;40758;54.038;11.684;2022-09-24T16:21:27;14.60;99.90
7296;DHT22;40758;54.038;11.684;2022-09-24T16:23:55;14.60;99.90